Terminal Aerodrome Forecast
Issued by NWS Wilmington, OH

Current Version | Previous Version | Graphics & Text | Print | Product List | Glossary On
Versions: 1 2 3 4 5 6 7 8 9 10 11 12 13 14 15 16 17 18 19 20
000
FTUS41 KILN 270534
TAFDAY
TAF
KDAY 270534Z 2706/2806 19006KT P6SM FEW070 BKN250
      TEMPO 2708/2711 5SM BR
     FM271400 21007KT P6SM VCSH BKN040
     FM271600 20008KT P6SM SCT040 BKN250
     FM280100 17005KT P6SM BKN250=

USA.gov is the U.S. government's official web portal to all federal, state and local government web resources and services.